Time,TemperatureF,DewpointF,PressureIn,WindDirection,WindDirectionDegrees,WindSpeedMPH,WindSpeedGustMPH,Humidity,HourlyPrecipIn,Conditions,Clouds,dailyrainin,SoftwareType,DateUTC
2013-11-08 00:01:00,20.3,16.0,30.05,SW,225,0.0,0.0,83,0.00,,,0.00,Weather View 32 v70,2013-11-08 09:01:00,
2013-11-08 00:06:00,20.3,16.0,30.06,SW,225,0.0,0.0,83,0.00,,,0.00,Weather View 32 v70,2013-11-08 09:06:00,
2013-11-08 00:11:00,20.1,15.8,30.06,SW,225,0.0,0.0,83,0.00,,,0.00,Weather View 32 v70,2013-11-08 09:11:00,
2013-11-08 00:16:00,20.1,16.1,30.06,SW,225,0.0,0.0,84,0.00,,,0.00,Weather View 32 v70,2013-11-08 09:16:00,
2013-11-08 00:21:00,20.1,16.1,30.06,SW,225,0.0,0.0,84,0.00,,,0.00,Weather View 32 v70,2013-11-08 09:21:00,
2013-11-08 00:31:00,20.3,16.2,30.06,SW,225,0.0,0.0,84,0.00,,,0.00,Weather View 32 v70,2013-11-08 09:31:00,
2013-11-08 00:36:00,20.3,16.2,30.06,SW,225,0.0,0.0,84,0.00,,,0.00,Weather View 32 v70,2013-11-08 09:36:00,
2013-11-08 00:41:00,20.3,16.2,30.06,SW,225,0.0,0.0,84,0.00,,,0.00,Weather View 32 v70,2013-11-08 09:41:00,
2013-11-08 00:46:00,20.3,16.2,30.07,SW,225,0.0,0.0,84,0.00,,,0.00,Weather View 32 v70,2013-11-08 09:46:00,
2013-11-08 00:51:00,20.7,16.6,30.07,SW,225,0.0,0.0,84,0.00,,,0.00,Weather View 32 v70,2013-11-08 09:51:00,
2013-11-08 00:56:00,20.7,16.6,30.07,SW,225,0.0,0.0,84,0.00,,,0.00,Weather View 32 v70,2013-11-08 09:56:00,
2013-11-08 01:01:00,20.5,16.7,30.07,SW,225,0.0,0.0,85,0.00,,,0.00,Weather View 32 v70,2013-11-08 10:01:00,
2013-11-08 01:06:00,20.5,16.7,30.07,SW,225,0.0,0.0,85,0.00,,,0.00,Weather View 32 v70,2013-11-08 10:06:00,
2013-11-08 01:11:00,20.5,16.4,30.07,SW,225,0.0,0.0,84,0.00,,,0.00,Weather View 32 v70,2013-11-08 10:11:00,
2013-11-08 01:16:00,20.3,16.2,30.07,SW,225,0.0,0.0,84,0.00,,,0.00,Weather View 32 v70,2013-11-08 10:16:00,
2013-11-08 01:21:00,20.3,16.2,30.07,SW,225,0.0,0.0,84,0.00,,,0.00,Weather View 32 v70,2013-11-08 10:21:00,
2013-11-08 01:26:00,20.1,16.1,30.07,SW,225,0.0,0.0,84,0.00,,,0.00,Weather View 32 v70,2013-11-08 10:26:00,
2013-11-08 01:31:00,20.1,16.1,30.07,SW,225,0.0,0.0,84,0.00,,,0.00,Weather View 32 v70,2013-11-08 10:31:00,
2013-11-08 01:36:00,20.1,16.1,30.07,SW,225,0.0,0.0,84,0.00,,,0.00,Weather View 32 v70,2013-11-08 10:36:00,
2013-11-08 01:41:00,20.3,16.2,30.07,SW,225,0.0,0.0,84,0.00,,,0.00,Weather View 32 v70,2013-11-08 10:41:00,
2013-11-08 01:46:00,19.9,15.9,30.08,SW,225,0.0,0.0,84,0.00,,,0.00,Weather View 32 v70,2013-11-08 10:46:00,
2013-11-08 01:51:00,19.8,15.7,30.08,SW,225,0.0,0.0,84,0.00,,,0.00,Weather View 32 v70,2013-11-08 10:51:00,
2013-11-08 01:56:00,19.9,16.2,30.08,SW,225,0.0,0.0,85,0.00,,,0.00,Weather View 32 v70,2013-11-08 10:56:00,
2013-11-08 02:01:00,19.8,16.0,30.08,SW,225,0.0,0.0,85,0.00,,,0.00,Weather View 32 v70,2013-11-08 11:01:00,
2013-11-08 02:06:00,19.8,16.0,30.08,SW,225,0.0,0.0,85,0.00,,,0.00,Weather View 32 v70,2013-11-08 11:06:00,
2013-11-08 02:11:00,19.8,16.0,30.08,SW,225,0.0,0.0,85,0.00,,,0.00,Weather View 32 v70,2013-11-08 11:11:00,
2013-11-08 02:16:00,19.6,15.8,30.08,SW,225,0.0,0.0,85,0.00,,,0.00,Weather View 32 v70,2013-11-08 11:16:00,
2013-11-08 02:21:00,19.6,15.8,30.08,SW,225,0.0,0.0,85,0.00,,,0.00,Weather View 32 v70,2013-11-08 11:21:00,
2013-11-08 02:31:00,19.2,15.5,30.09,SW,225,0.0,0.0,85,0.00,,,0.00,Weather View 32 v70,2013-11-08 11:31:00,
2013-11-08 02:36:00,18.9,15.1,30.09,SW,225,0.0,0.0,85,0.00,,,0.00,Weather View 32 v70,2013-11-08 11:36:00,
2013-11-08 02:41:00,18.9,15.1,30.09,SW,225,0.0,0.0,85,0.00,,,0.00,Weather View 32 v70,2013-11-08 11:41:00,
2013-11-08 02:46:00,18.5,14.7,30.10,SW,225,0.0,0.0,85,0.00,,,0.00,Weather View 32 v70,2013-11-08 11:46:00,
2013-11-08 02:51:00,18.5,14.7,30.10,SW,225,0.0,0.0,85,0.00,,,0.00,Weather View 32 v70,2013-11-08 11:51:00,
2013-11-08 02:56:00,18.3,14.6,30.10,SW,225,0.0,0.0,85,0.00,,,0.00,Weather View 32 v70,2013-11-08 11:56:00,
2013-11-08 03:01:00,18.1,14.4,30.10,SW,225,0.0,0.0,85,0.00,,,0.00,Weather View 32 v70,2013-11-08 12:01:00,
2013-11-08 03:06:00,18.1,14.4,30.10,SW,225,0.0,0.0,85,0.00,,,0.00,Weather View 32 v70,2013-11-08 12:06:00,
2013-11-08 03:11:00,18.1,14.4,30.10,SW,225,0.0,0.0,85,0.00,,,0.00,Weather View 32 v70,2013-11-08 12:11:00,
2013-11-08 03:16:00,18.1,14.4,30.10,SW,225,0.0,0.0,85,0.00,,,0.00,Weather View 32 v70,2013-11-08 12:16:00,
2013-11-08 03:21:00,17.8,14.3,30.10,SW,225,0.0,0.0,86,0.00,,,0.00,Weather View 32 v70,2013-11-08 12:21:00,
2013-11-08 03:26:00,18.1,14.7,30.11,SW,225,0.0,0.0,86,0.00,,,0.00,Weather View 32 v70,2013-11-08 12:26:00,
2013-11-08 03:31:00,18.1,14.9,30.11,SW,225,0.0,0.0,87,0.00,,,0.00,Weather View 32 v70,2013-11-08 12:31:00,
2013-11-08 03:36:00,18.1,14.9,30.11,SW,225,0.0,0.0,87,0.00,,,0.00,Weather View 32 v70,2013-11-08 12:36:00,
2013-11-08 03:41:00,18.1,14.7,30.11,SW,225,0.0,0.0,86,0.00,,,0.00,Weather View 32 v70,2013-11-08 12:41:00,
2013-11-08 03:46:00,18.1,14.7,30.12,SW,225,0.0,0.0,86,0.00,,,0.00,Weather View 32 v70,2013-11-08 12:46:00,
2013-11-08 03:51:00,17.8,14.3,30.12,SW,225,0.0,0.0,86,0.00,,,0.00,Weather View 32 v70,2013-11-08 12:51:00,
2013-11-08 04:00:00,17.6,14.1,30.12,SW,225,0.0,0.0,86,0.00,,,0.00,Weather View 32 v70,2013-11-08 13:00:00,
2013-11-08 04:05:00,17.6,14.1,30.12,SW,225,0.0,0.0,86,0.00,,,0.00,Weather View 32 v70,2013-11-08 13:05:00,
2013-11-08 04:10:00,17.4,14.0,30.12,SW,225,0.0,0.0,86,0.00,,,0.00,Weather View 32 v70,2013-11-08 13:10:00,
2013-11-08 04:15:00,17.4,14.0,30.12,SW,225,0.0,0.0,86,0.00,,,0.00,Weather View 32 v70,2013-11-08 13:15:00,
2013-11-08 04:20:00,17.4,14.0,30.12,SW,225,0.0,0.0,86,0.00,,,0.00,Weather View 32 v70,2013-11-08 13:20:00,
2013-11-08 04:25:00,17.4,14.0,30.12,SW,225,0.0,0.0,86,0.00,,,0.00,Weather View 32 v70,2013-11-08 13:25:00,
2013-11-08 04:30:00,17.4,14.0,30.12,SW,225,0.0,0.0,86,0.00,,,0.00,Weather View 32 v70,2013-11-08 13:30:00,
2013-11-08 04:35:00,17.4,14.0,30.12,SW,225,0.0,0.0,86,0.00,,,0.00,Weather View 32 v70,2013-11-08 13:35:00,
2013-11-08 04:40:00,17.4,14.0,30.12,SW,225,0.0,0.0,86,0.00,,,0.00,Weather View 32 v70,2013-11-08 13:40:00,
2013-11-08 04:45:00,17.4,14.0,30.12,SW,225,0.0,0.0,86,0.00,,,0.00,Weather View 32 v70,2013-11-08 13:45:00,
2013-11-08 04:50:00,17.1,13.6,30.13,SW,225,0.0,0.0,86,0.00,,,0.00,Weather View 32 v70,2013-11-08 13:50:00,
2013-11-08 04:55:00,17.4,14.0,30.13,SW,225,0.0,0.0,86,0.00,,,0.00,Weather View 32 v70,2013-11-08 13:55:00,
2013-11-08 05:00:00,17.6,14.4,30.13,SW,225,0.0,0.0,87,0.00,,,0.00,Weather View 32 v70,2013-11-08 14:00:00,
2013-11-08 05:10:00,17.6,14.4,30.13,SW,225,0.0,0.0,87,0.00,,,0.00,Weather View 32 v70,2013-11-08 14:10:00,
2013-11-08 05:15:00,17.6,14.4,30.13,SW,225,0.0,0.0,87,0.00,,,0.00,Weather View 32 v70,2013-11-08 14:15:00,
2013-11-08 05:20:00,18.1,14.9,30.13,SW,225,0.0,0.0,87,0.00,,,0.00,Weather View 32 v70,2013-11-08 14:20:00,
2013-11-08 05:25:00,18.5,15.3,30.13,SW,225,0.0,0.0,87,0.00,,,0.00,Weather View 32 v70,2013-11-08 14:25:00,
2013-11-08 05:35:00,18.9,15.6,30.14,SW,225,0.0,0.0,87,0.00,,,0.00,Weather View 32 v70,2013-11-08 14:35:00,
2013-11-08 05:40:00,18.9,15.6,30.14,SW,225,0.0,0.0,87,0.00,,,0.00,Weather View 32 v70,2013-11-08 14:40:00,
2013-11-08 05:45:00,18.9,15.6,30.15,SW,225,0.0,0.0,87,0.00,,,0.00,Weather View 32 v70,2013-11-08 14:45:00,
2013-11-08 05:50:00,18.9,15.6,30.15,SW,225,0.0,0.0,87,0.00,,,0.00,Weather View 32 v70,2013-11-08 14:50:00,
2013-11-08 05:55:00,19.2,16.0,30.15,SW,225,0.0,0.0,87,0.00,,,0.00,Weather View 32 v70,2013-11-08 14:55:00,
2013-11-08 06:05:00,19.6,16.3,30.15,SW,225,0.0,0.0,87,0.00,,,0.00,Weather View 32 v70,2013-11-08 15:05:00,
2013-11-08 06:10:00,19.6,16.3,30.15,SW,225,0.0,0.0,87,0.00,,,0.00,Weather View 32 v70,2013-11-08 15:10:00,
2013-11-08 06:15:00,19.6,16.3,30.15,SW,225,0.0,0.0,87,0.00,,,0.00,Weather View 32 v70,2013-11-08 15:15:00,
2013-11-08 06:20:00,19.6,16.3,30.15,SW,225,0.0,0.0,87,0.00,,,0.00,Weather View 32 v70,2013-11-08 15:20:00,
2013-11-08 06:30:00,19.8,16.5,30.17,SW,225,0.0,0.0,87,0.00,,,0.00,Weather View 32 v70,2013-11-08 15:30:00,
2013-11-08 06:35:00,19.9,16.7,30.17,SW,225,0.0,0.0,87,0.00,,,0.00,Weather View 32 v70,2013-11-08 15:35:00,
2013-11-08 06:40:00,19.8,16.5,30.17,SW,225,0.0,0.0,87,0.00,,,0.00,Weather View 32 v70,2013-11-08 15:40:00,
2013-11-08 06:45:00,19.6,16.3,30.17,SW,225,0.0,0.0,87,0.00,,,0.00,Weather View 32 v70,2013-11-08 15:45:00,
2013-11-08 06:50:00,19.2,16.0,30.17,SW,225,0.0,0.0,87,0.00,,,0.00,Weather View 32 v70,2013-11-08 15:50:00,
2013-11-08 07:00:00,18.9,15.6,30.17,SW,225,0.0,0.0,87,0.00,,,0.00,Weather View 32 v70,2013-11-08 16:00:00,
2013-11-08 07:05:00,18.5,15.3,30.17,SW,225,0.0,0.0,87,0.00,,,0.00,Weather View 32 v70,2013-11-08 16:05:00,
2013-11-08 07:10:00,18.1,14.9,30.17,SW,225,0.0,0.0,87,0.00,,,0.00,Weather View 32 v70,2013-11-08 16:10:00,
2013-11-08 07:15:00,18.1,14.9,30.17,SW,225,0.0,0.0,87,0.00,,,0.00,Weather View 32 v70,2013-11-08 16:15:00,
2013-11-08 07:20:00,17.8,14.6,30.17,SW,225,0.0,0.0,87,0.00,,,0.00,Weather View 32 v70,2013-11-08 16:20:00,
2013-11-08 07:30:00,17.1,13.6,30.19,SW,225,0.0,0.0,86,0.00,,,0.00,Weather View 32 v70,2013-11-08 16:30:00,
2013-11-08 07:35:00,16.9,13.4,30.19,SW,225,0.0,0.0,86,0.00,,,0.00,Weather View 32 v70,2013-11-08 16:35:00,
2013-11-08 07:40:00,16.7,13.2,30.19,SW,225,0.0,0.0,86,0.00,,,0.00,Weather View 32 v70,2013-11-08 16:40:00,
2013-11-08 07:45:00,16.7,13.5,30.19,SW,225,0.0,0.0,87,0.00,,,0.00,Weather View 32 v70,2013-11-08 16:45:00,
2013-11-08 07:53:00,16.3,13.2,30.18,SW,225,0.0,0.0,87,0.00,,,0.00,Weather View 32 v70,2013-11-08 16:53:00,
2013-11-08 08:00:00,16.0,12.8,30.18,SW,225,0.0,0.0,87,0.00,,,0.00,Weather View 32 v70,2013-11-08 17:00:00,
2013-11-08 08:05:00,16.0,12.8,30.19,SW,225,0.0,0.0,87,0.00,,,0.00,Weather View 32 v70,2013-11-08 17:05:00,
2013-11-08 08:10:00,15.4,12.3,30.19,SW,225,0.0,0.0,87,0.00,,,0.00,Weather View 32 v70,2013-11-08 17:10:00,
2013-11-08 08:20:00,15.3,12.1,30.19,SW,225,0.0,0.0,87,0.00,,,0.00,Weather View 32 v70,2013-11-08 17:20:00,
2013-11-08 08:25:00,15.3,12.1,30.19,SW,225,0.0,0.0,87,0.00,,,0.00,Weather View 32 v70,2013-11-08 17:25:00,
2013-11-08 08:30:00,14.7,11.3,30.19,SW,225,0.0,0.0,86,0.00,,,0.00,Weather View 32 v70,2013-11-08 17:30:00,
2013-11-08 08:40:00,14.5,11.4,30.19,SW,225,0.0,0.0,87,0.00,,,0.00,Weather View 32 v70,2013-11-08 17:40:00,
2013-11-08 08:45:00,14.5,11.4,30.21,SW,225,0.0,0.0,87,0.00,,,0.00,Weather View 32 v70,2013-11-08 17:45:00,
2013-11-08 08:50:00,14.5,11.1,30.21,SW,225,0.0,0.0,86,0.00,,,0.00,Weather View 32 v70,2013-11-08 17:50:00,
2013-11-08 08:55:00,14.2,10.8,30.21,SW,225,0.0,0.0,86,0.00,,,0.00,Weather View 32 v70,2013-11-08 17:55:00,
2013-11-08 09:05:00,13.8,10.7,30.24,SW,225,0.0,0.0,87,0.00,,,0.00,Weather View 32 v70,2013-11-08 18:05:00,
2013-11-08 09:10:00,14.0,10.6,30.24,SW,225,0.0,0.0,86,0.00,,,0.00,Weather View 32 v70,2013-11-08 18:10:00,
2013-11-08 09:15:00,14.0,10.6,30.24,SW,225,0.0,0.0,86,0.00,,,0.00,Weather View 32 v70,2013-11-08 18:15:00,
2013-11-08 09:20:00,13.8,10.4,30.24,SW,225,0.0,0.0,86,0.00,,,0.00,Weather View 32 v70,2013-11-08 18:20:00,
2013-11-08 09:25:00,14.0,10.6,30.24,SW,225,0.0,0.0,86,0.00,,,0.00,Weather View 32 v70,2013-11-08 18:25:00,
2013-11-08 09:30:00,14.0,10.9,30.24,SW,225,0.0,0.0,87,0.00,,,0.00,Weather View 32 v70,2013-11-08 18:30:00,
2013-11-08 09:35:00,14.2,11.0,30.24,SW,225,0.0,0.0,87,0.00,,,0.00,Weather View 32 v70,2013-11-08 18:35:00,
2013-11-08 09:40:00,14.2,11.0,30.24,SW,225,0.0,0.0,87,0.00,,,0.00,Weather View 32 v70,2013-11-08 18:40:00,
2013-11-08 09:45:00,14.5,11.6,30.24,SW,225,0.0,0.0,88,0.00,,,0.00,Weather View 32 v70,2013-11-08 18:45:00,
2013-11-08 09:50:00,14.7,12.1,30.25,SW,225,0.0,0.0,89,0.00,,,0.00,Weather View 32 v70,2013-11-08 18:50:00,
2013-11-08 09:55:00,15.3,12.3,30.25,SW,225,0.0,0.0,88,0.00,,,0.00,Weather View 32 v70,2013-11-08 18:55:00,
2013-11-08 10:00:00,15.3,12.3,30.25,SW,225,0.0,0.0,88,0.00,,,0.00,Weather View 32 v70,2013-11-08 19:00:00,
2013-11-08 10:05:00,15.3,12.1,30.26,SW,225,0.0,0.0,87,0.00,,,0.00,Weather View 32 v70,2013-11-08 19:05:00,
2013-11-08 10:10:00,15.3,12.1,30.26,SW,225,0.0,0.0,87,0.00,,,0.00,Weather View 32 v70,2013-11-08 19:10:00,
2013-11-08 10:15:00,15.4,12.5,30.26,SW,225,0.0,0.0,88,0.00,,,0.00,Weather View 32 v70,2013-11-08 19:15:00,
2013-11-08 10:20:00,16.0,13.1,30.26,SW,225,0.0,0.0,88,0.00,,,0.00,Weather View 32 v70,2013-11-08 19:20:00,
2013-11-08 10:25:00,16.3,13.4,30.27,SW,225,0.0,0.0,88,0.00,,,0.00,Weather View 32 v70,2013-11-08 19:25:00,
2013-11-08 10:35:00,16.7,13.8,30.27,SW,225,0.0,0.0,88,0.00,,,0.00,Weather View 32 v70,2013-11-08 19:35:00,
2013-11-08 10:40:00,17.1,14.1,30.27,SW,225,0.0,0.0,88,0.00,,,0.00,Weather View 32 v70,2013-11-08 19:40:00,
2013-11-08 10:45:00,17.8,15.1,30.27,SW,225,0.0,0.0,89,0.00,,,0.00,Weather View 32 v70,2013-11-08 19:45:00,
2013-11-08 10:50:00,17.8,14.8,30.27,SW,225,0.0,0.0,88,0.00,,,0.00,Weather View 32 v70,2013-11-08 19:50:00,
2013-11-08 11:00:00,18.7,15.7,30.27,SW,225,0.0,0.0,88,0.00,,,0.00,Weather View 32 v70,2013-11-08 20:00:00,
2013-11-08 11:05:00,18.9,15.9,30.27,SW,225,0.0,0.0,88,0.00,,,0.00,Weather View 32 v70,2013-11-08 20:05:00,
2013-11-08 11:10:00,18.9,15.9,30.27,SW,225,0.0,0.0,88,0.00,,,0.00,Weather View 32 v70,2013-11-08 20:10:00,
2013-11-08 11:20:00,21.7,18.7,30.27,SW,225,0.0,0.0,88,0.00,,,0.00,Weather View 32 v70,2013-11-08 20:20:00,
2013-11-08 11:25:00,31.8,27.5,30.27,SW,225,0.0,0.0,84,0.00,,,0.00,Weather View 32 v70,2013-11-08 20:25:00,
2013-11-08 11:30:00,35.6,29.4,30.27,SW,225,0.0,0.0,78,0.00,,,0.00,Weather View 32 v70,2013-11-08 20:30:00,
2013-11-08 11:35:00,39.2,29.5,30.27,SW,225,0.0,0.0,68,0.00,,,0.00,Weather View 32 v70,2013-11-08 20:35:00,
2013-11-08 11:40:00,41.2,29.1,30.27,SW,225,0.0,0.0,62,0.00,,,0.00,Weather View 32 v70,2013-11-08 20:40:00,
2013-11-08 11:45:00,43.5,30.1,30.27,SW,225,0.0,0.0,59,0.00,,,0.00,Weather View 32 v70,2013-11-08 20:45:00,
2013-11-08 11:50:00,45.1,31.2,30.26,SW,225,0.0,0.0,58,0.00,,,0.00,Weather View 32 v70,2013-11-08 20:50:00,
2013-11-08 11:55:00,46.4,30.6,30.26,SW,225,0.0,0.0,54,0.00,,,0.00,Weather View 32 v70,2013-11-08 20:55:00,
2013-11-08 12:05:00,45.0,27.4,30.26,SW,225,0.0,0.0,50,0.00,,,0.00,Weather View 32 v70,2013-11-08 21:05:00,
2013-11-08 12:15:00,49.1,31.7,30.27,SW,225,0.0,0.0,51,0.00,,,0.00,Weather View 32 v70,2013-11-08 21:15:00,
2013-11-08 12:20:00,50.0,30.0,30.27,SW,225,0.0,0.0,46,0.00,,,0.00,Weather View 32 v70,2013-11-08 21:20:00,
2013-11-08 12:25:00,50.5,29.4,30.27,SW,225,0.0,0.0,44,0.00,,,0.00,Weather View 32 v70,2013-11-08 21:25:00,
2013-11-08 12:30:00,51.3,29.5,30.27,SW,225,0.0,0.0,43,0.00,,,0.00,Weather View 32 v70,2013-11-08 21:30:00,
2013-11-08 12:35:00,51.3,28.9,30.27,SW,225,0.0,0.0,42,0.00,,,0.00,Weather View 32 v70,2013-11-08 21:35:00,
2013-11-08 12:40:00,50.2,26.7,30.27,SW,225,0.0,0.0,40,0.00,,,0.00,Weather View 32 v70,2013-11-08 21:40:00,
2013-11-08 12:45:00,41.0,21.8,30.28,SW,225,0.0,0.0,46,0.00,,,0.00,Weather View 32 v70,2013-11-08 21:45:00,
2013-11-08 12:50:00,38.1,21.1,30.28,SW,225,0.0,0.0,50,0.00,,,0.00,Weather View 32 v70,2013-11-08 21:50:00,
2013-11-08 12:55:00,36.3,21.2,30.28,SW,225,0.0,0.0,54,0.00,,,0.00,Weather View 32 v70,2013-11-08 21:55:00,
2013-11-08 13:00:00,35.4,21.3,30.28,SW,225,0.0,0.0,56,0.00,,,0.00,Weather View 32 v70,2013-11-08 22:00:00,
2013-11-08 13:05:00,34.2,21.3,30.30,SW,225,0.0,0.0,59,0.00,,,0.00,Weather View 32 v70,2013-11-08 22:05:00,
2013-11-08 13:10:00,33.6,20.8,30.30,SW,225,0.0,0.0,59,0.00,,,0.00,Weather View 32 v70,2013-11-08 22:10:00,
2013-11-08 13:20:00,32.4,20.8,30.30,SW,225,0.0,0.0,62,0.00,,,0.00,Weather View 32 v70,2013-11-08 22:20:00,
2013-11-08 13:25:00,31.8,20.7,30.30,SW,225,0.0,0.0,63,0.00,,,0.00,Weather View 32 v70,2013-11-08 22:25:00,
2013-11-08 13:30:00,31.5,20.3,30.30,SW,225,0.0,0.0,63,0.00,,,0.00,Weather View 32 v70,2013-11-08 22:30:00,
2013-11-08 13:35:00,31.3,20.9,30.30,SW,225,0.0,0.0,65,0.00,,,0.00,Weather View 32 v70,2013-11-08 22:35:00,
2013-11-08 13:40:00,31.1,20.7,30.30,SW,225,0.0,0.0,65,0.00,,,0.00,Weather View 32 v70,2013-11-08 22:40:00,
2013-11-08 13:45:00,31.1,21.1,30.30,SW,225,0.0,0.0,66,0.00,,,0.00,Weather View 32 v70,2013-11-08 22:45:00,
2013-11-08 13:55:00,30.6,20.5,30.30,SW,225,0.0,0.0,66,0.00,,,0.00,Weather View 32 v70,2013-11-08 22:55:00,
2013-11-08 14:00:00,30.7,20.7,30.30,SW,225,0.0,0.0,66,0.00,,,0.00,Weather View 32 v70,2013-11-08 23:00:00,
2013-11-08 14:05:00,30.7,20.7,30.30,SW,225,0.0,0.0,66,0.00,,,0.00,Weather View 32 v70,2013-11-08 23:05:00,
2013-11-08 14:15:00,30.6,20.9,30.31,SW,225,0.0,0.0,67,0.00,,,0.00,Weather View 32 v70,2013-11-08 23:15:00,
2013-11-08 14:20:00,30.7,21.1,30.31,SW,225,0.0,0.0,67,0.00,,,0.00,Weather View 32 v70,2013-11-08 23:20:00,
2013-11-08 14:30:00,30.4,20.7,30.32,SW,225,0.0,0.0,67,0.00,,,0.00,Weather View 32 v70,2013-11-08 23:30:00,
2013-11-08 14:35:00,30.4,20.7,30.32,SW,225,0.0,0.0,67,0.00,,,0.00,Weather View 32 v70,2013-11-08 23:35:00,
2013-11-08 14:40:00,30.4,20.7,30.32,SW,225,0.0,0.0,67,0.00,,,0.00,Weather View 32 v70,2013-11-08 23:40:00,
2013-11-08 14:50:00,30.4,20.7,30.33,SW,225,0.0,0.0,67,0.00,,,0.00,Weather View 32 v70,2013-11-08 23:50:00,
2013-11-08 14:55:00,30.4,20.7,30.33,SW,225,0.0,0.0,67,0.00,,,0.00,Weather View 32 v70,2013-11-08 23:55:00,
2013-11-08 15:00:00,30.4,20.7,30.33,SW,225,0.0,0.0,67,0.00,,,0.00,Weather View 32 v70,2013-11-09 00:00:00,
2013-11-08 15:05:00,30.0,20.4,30.33,SW,225,0.0,0.0,67,0.00,,,0.00,Weather View 32 v70,2013-11-09 00:05:00,
2013-11-08 15:10:00,29.7,20.4,30.33,SW,225,0.0,0.0,68,0.00,,,0.00,Weather View 32 v70,2013-11-09 00:10:00,
2013-11-08 15:15:00,29.7,20.7,30.33,SW,225,0.0,0.0,69,0.00,,,0.00,Weather View 32 v70,2013-11-09 00:15:00,
2013-11-08 15:20:00,29.3,20.4,30.33,SW,225,0.0,0.0,69,0.00,,,0.00,Weather View 32 v70,2013-11-09 00:20:00,
2013-11-08 15:30:00,28.4,19.9,30.34,SW,225,0.0,0.0,70,0.00,,,0.00,Weather View 32 v70,2013-11-09 00:30:00,
2013-11-08 15:35:00,28.2,19.7,30.34,SW,225,0.0,0.0,70,0.00,,,0.00,Weather View 32 v70,2013-11-09 00:35:00,
2013-11-08 15:40:00,28.2,19.7,30.34,SW,225,0.0,0.0,70,0.00,,,0.00,Weather View 32 v70,2013-11-09 00:40:00,
2013-11-08 15:45:00,27.9,19.7,30.35,SW,225,0.0,0.0,71,0.00,,,0.00,Weather View 32 v70,2013-11-09 00:45:00,
2013-11-08 15:50:00,27.7,19.5,30.35,SW,225,0.0,0.0,71,0.00,,,0.00,Weather View 32 v70,2013-11-09 00:50:00,
2013-11-08 15:55:00,27.5,19.7,30.35,SW,225,0.0,0.0,72,0.00,,,0.00,Weather View 32 v70,2013-11-09 00:55:00,
2013-11-08 16:00:00,27.5,19.7,30.35,SW,225,0.0,0.0,72,0.00,,,0.00,Weather View 32 v70,2013-11-09 01:00:00,
2013-11-08 16:05:00,27.0,19.1,30.35,SW,225,0.0,0.0,72,0.00,,,0.00,Weather View 32 v70,2013-11-09 01:05:00,
2013-11-08 16:10:00,26.8,19.0,30.34,SW,225,0.0,0.0,72,0.00,,,0.00,Weather View 32 v70,2013-11-09 01:10:00,
2013-11-08 16:16:00,26.8,19.3,30.34,SW,225,0.0,0.0,73,0.00,,,0.00,Weather View 32 v70,2013-11-09 01:16:00,
2013-11-08 16:25:00,26.1,18.9,30.34,SW,225,0.0,0.0,74,0.00,,,0.00,Weather View 32 v70,2013-11-09 01:25:00,
2013-11-08 16:30:00,25.5,18.4,30.34,SW,225,0.0,0.0,74,0.00,,,0.00,Weather View 32 v70,2013-11-09 01:30:00,
2013-11-08 16:35:00,25.3,18.5,30.34,SW,225,0.0,0.0,75,0.00,,,0.00,Weather View 32 v70,2013-11-09 01:35:00,
2013-11-08 16:45:00,24.8,18.0,30.34,SW,225,0.0,0.0,75,0.00,,,0.00,Weather View 32 v70,2013-11-09 01:45:00,
2013-11-08 16:50:00,24.6,18.1,30.34,SW,225,0.0,0.0,76,0.00,,,0.00,Weather View 32 v70,2013-11-09 01:50:00,
2013-11-08 16:58:00,24.4,18.0,30.34,SW,225,0.0,0.0,76,0.00,,,0.00,Weather View 32 v70,2013-11-09 01:58:00,
2013-11-08 17:05:00,24.1,17.9,30.33,SW,225,0.0,0.0,77,0.00,,,0.00,Weather View 32 v70,2013-11-09 02:05:00,
2013-11-08 17:10:00,24.3,18.1,30.33,SW,225,0.0,0.0,77,0.00,,,0.00,Weather View 32 v70,2013-11-09 02:10:00,
2013-11-08 17:15:00,23.9,17.7,30.33,SW,225,0.0,0.0,77,0.00,,,0.00,Weather View 32 v70,2013-11-09 02:15:00,
2013-11-08 17:20:00,23.5,17.7,30.33,SW,225,0.0,0.0,78,0.00,,,0.00,Weather View 32 v70,2013-11-09 02:20:00,
2013-11-08 17:25:00,23.2,17.3,30.32,SW,225,0.0,0.0,78,0.00,,,0.00,Weather View 32 v70,2013-11-09 02:25:00,
2013-11-08 17:30:00,23.2,17.3,30.32,SW,225,0.0,0.0,78,0.00,,,0.00,Weather View 32 v70,2013-11-09 02:30:00,
2013-11-08 17:35:00,22.6,16.8,30.32,SW,225,0.0,0.0,78,0.00,,,0.00,Weather View 32 v70,2013-11-09 02:35:00,
2013-11-08 17:40:00,22.5,16.6,30.32,SW,225,0.0,0.0,78,0.00,,,0.00,Weather View 32 v70,2013-11-09 02:40:00,
2013-11-08 17:45:00,22.1,16.6,30.32,SW,225,0.0,0.0,79,0.00,,,0.00,Weather View 32 v70,2013-11-09 02:45:00,
2013-11-08 17:55:00,21.9,16.7,30.32,SW,225,0.0,0.0,80,0.00,,,0.00,Weather View 32 v70,2013-11-09 02:55:00,
2013-11-08 18:00:00,21.9,16.7,30.32,SW,225,0.0,0.0,80,0.00,,,0.00,Weather View 32 v70,2013-11-09 03:00:00,
2013-11-08 18:05:00,21.7,16.5,30.32,SW,225,0.0,0.0,80,0.00,,,0.00,Weather View 32 v70,2013-11-09 03:05:00,
2013-11-08 18:10:00,21.4,16.2,30.32,SW,225,0.0,0.0,80,0.00,,,0.00,Weather View 32 v70,2013-11-09 03:10:00,
2013-11-08 18:20:00,20.7,15.5,30.32,SW,225,0.0,0.0,80,0.00,,,0.00,Weather View 32 v70,2013-11-09 03:20:00,
2013-11-08 18:25:00,20.5,15.3,30.33,SW,225,0.0,0.0,80,0.00,,,0.00,Weather View 32 v70,2013-11-09 03:25:00,
2013-11-08 18:30:00,20.5,15.3,30.33,SW,225,0.0,0.0,80,0.00,,,0.00,Weather View 32 v70,2013-11-09 03:30:00,
2013-11-08 18:40:00,20.1,14.9,30.33,SW,225,0.0,0.0,80,0.00,,,0.00,Weather View 32 v70,2013-11-09 03:40:00,
2013-11-08 18:45:00,20.1,14.9,30.33,SW,225,0.0,0.0,80,0.00,,,0.00,Weather View 32 v70,2013-11-09 03:45:00,
2013-11-08 18:50:00,19.6,14.4,30.33,SW,225,0.0,0.0,80,0.00,,,0.00,Weather View 32 v70,2013-11-09 03:50:00,
2013-11-08 18:55:00,18.9,13.7,30.33,SW,225,0.0,0.0,80,0.00,,,0.00,Weather View 32 v70,2013-11-09 03:55:00,
2013-11-08 19:00:00,18.5,13.6,30.33,SW,225,0.0,0.0,81,0.00,,,0.00,Weather View 32 v70,2013-11-09 04:00:00,
2013-11-08 19:05:00,18.5,13.6,30.34,SW,225,0.0,0.0,81,0.00,,,0.00,Weather View 32 v70,2013-11-09 04:05:00,
2013-11-08 19:15:00,18.1,13.3,30.34,SW,225,0.0,0.0,81,0.00,,,0.00,Weather View 32 v70,2013-11-09 04:15:00,
2013-11-08 19:20:00,18.0,13.1,30.34,SW,225,0.0,0.0,81,0.00,,,0.00,Weather View 32 v70,2013-11-09 04:20:00,
2013-11-08 19:25:00,17.6,12.8,30.34,SW,225,0.0,0.0,81,0.00,,,0.00,Weather View 32 v70,2013-11-09 04:25:00,
2013-11-08 19:35:00,17.4,12.6,30.34,SW,225,0.0,0.0,81,0.00,,,0.00,Weather View 32 v70,2013-11-09 04:35:00,
2013-11-08 19:40:00,17.1,12.2,30.34,SW,225,0.0,0.0,81,0.00,,,0.00,Weather View 32 v70,2013-11-09 04:40:00,
2013-11-08 19:45:00,16.9,12.1,30.34,SW,225,0.0,0.0,81,0.00,,,0.00,Weather View 32 v70,2013-11-09 04:45:00,
2013-11-08 19:50:00,16.7,11.9,30.34,SW,225,0.0,0.0,81,0.00,,,0.00,Weather View 32 v70,2013-11-09 04:50:00,
2013-11-08 20:00:00,16.7,11.9,30.34,SW,225,0.0,0.0,81,0.00,,,0.00,Weather View 32 v70,2013-11-09 05:00:00,
2013-11-08 20:05:00,16.3,11.8,30.34,SW,225,0.0,0.0,82,0.00,,,0.00,Weather View 32 v70,2013-11-09 05:05:00,
2013-11-08 20:10:00,16.3,11.8,30.34,SW,225,0.0,0.0,82,0.00,,,0.00,Weather View 32 v70,2013-11-09 05:10:00,
2013-11-08 20:15:00,16.3,11.8,30.34,SW,225,0.0,0.0,82,0.00,,,0.00,Weather View 32 v70,2013-11-09 05:15:00,
2013-11-08 20:20:00,32.0,-58.3,30.34,SW,225,0.0,0.0,1,0.00,,,0.00,Weather View 32 v70,2013-11-09 05:20:00,
2013-11-08 20:25:00,32.0,-58.3,30.34,SW,225,0.0,0.0,1,0.00,,,0.00,Weather View 32 v70,2013-11-09 05:25:00,
2013-11-08 20:30:00,32.0,-58.3,30.34,SW,225,0.0,0.0,1,0.00,,,0.00,Weather View 32 v70,2013-11-09 05:30:00,
2013-11-08 20:35:00,32.0,-58.3,30.34,SW,225,0.0,0.0,1,0.00,,,0.00,Weather View 32 v70,2013-11-09 05:35:00,
2013-11-08 20:40:00,32.0,-58.3,30.34,SW,225,0.0,0.0,1,0.00,,,0.00,Weather View 32 v70,2013-11-09 05:40:00,
2013-11-08 20:50:00,32.0,-58.3,30.34,SW,225,0.0,0.0,1,0.00,,,0.00,Weather View 32 v70,2013-11-09 05:50:00,
2013-11-08 20:55:00,32.0,-58.3,30.34,SW,225,0.0,0.0,1,0.00,,,0.00,Weather View 32 v70,2013-11-09 05:55:00,
2013-11-08 21:00:00,32.0,-58.3,30.34,SW,225,0.0,0.0,1,0.00,,,0.00,Weather View 32 v70,2013-11-09 06:00:00,
2013-11-08 21:10:00,32.0,-58.3,30.34,SW,225,0.0,0.0,1,0.00,,,0.00,Weather View 32 v70,2013-11-09 06:10:00,
2013-11-08 21:20:00,32.0,-58.3,30.34,SW,225,0.0,0.0,1,0.00,,,0.00,Weather View 32 v70,2013-11-09 06:20:00,
2013-11-08 21:25:00,32.0,-58.3,30.35,SW,225,0.0,0.0,1,0.00,,,0.00,Weather View 32 v70,2013-11-09 06:25:00,
2013-11-08 21:30:00,32.0,-58.3,30.35,SW,225,0.0,0.0,1,0.00,,,0.00,Weather View 32 v70,2013-11-09 06:30:00,
2013-11-08 21:35:00,32.0,-58.3,30.35,SW,225,0.0,0.0,1,0.00,,,0.00,Weather View 32 v70,2013-11-09 06:35:00,
2013-11-08 21:45:00,32.0,-58.3,30.35,SW,225,0.0,0.0,1,0.00,,,0.00,Weather View 32 v70,2013-11-09 06:45:00,
2013-11-08 21:50:00,32.0,-58.3,30.35,SW,225,0.0,0.0,1,0.00,,,0.00,Weather View 32 v70,2013-11-09 06:50:00,
2013-11-08 21:55:00,32.0,-58.3,30.35,SW,225,0.0,0.0,1,0.00,,,0.00,Weather View 32 v70,2013-11-09 06:55:00,
2013-11-08 22:00:00,32.0,-58.3,30.35,SW,225,0.0,0.0,1,0.00,,,0.00,Weather View 32 v70,2013-11-09 07:00:00,
2013-11-08 22:05:00,32.0,-58.3,30.34,SW,225,0.0,0.0,1,0.00,,,0.00,Weather View 32 v70,2013-11-09 07:05:00,
2013-11-08 22:15:00,32.0,-58.3,30.34,SW,225,0.0,0.0,1,0.00,,,0.00,Weather View 32 v70,2013-11-09 07:15:00,
2013-11-08 22:20:00,32.0,-58.3,30.34,SW,225,0.0,0.0,1,0.00,,,0.00,Weather View 32 v70,2013-11-09 07:20:00,
2013-11-08 22:25:00,32.0,-58.3,30.34,SW,225,0.0,0.0,1,0.00,,,0.00,Weather View 32 v70,2013-11-09 07:25:00,
2013-11-08 22:30:00,32.0,-58.3,30.34,SW,225,0.0,0.0,1,0.00,,,0.00,Weather View 32 v70,2013-11-09 07:30:00,
2013-11-08 22:35:00,32.0,-58.3,30.34,SW,225,0.0,0.0,1,0.00,,,0.00,Weather View 32 v70,2013-11-09 07:35:00,
2013-11-08 22:45:00,32.0,-58.3,30.35,SW,225,0.0,0.0,1,0.00,,,0.00,Weather View 32 v70,2013-11-09 07:45:00,
2013-11-08 22:50:00,32.0,-58.3,30.35,SW,225,0.0,0.0,1,0.00,,,0.00,Weather View 32 v70,2013-11-09 07:50:00,
2013-11-08 22:55:00,32.0,-58.3,30.35,SW,225,0.0,0.0,1,0.00,,,0.00,Weather View 32 v70,2013-11-09 07:55:00,
2013-11-08 23:00:00,32.0,-58.3,30.35,SW,225,0.0,0.0,1,0.00,,,0.00,Weather View 32 v70,2013-11-09 08:00:00,
2013-11-08 23:05:00,32.0,-58.3,30.34,SW,225,0.0,0.0,1,0.00,,,0.00,Weather View 32 v70,2013-11-09 08:05:00,
2013-11-08 23:15:00,32.0,-58.3,30.34,SW,225,0.0,0.0,1,0.00,,,0.00,Weather View 32 v70,2013-11-09 08:15:00,
2013-11-08 23:20:00,32.0,-58.3,30.34,SW,225,0.0,0.0,1,0.00,,,0.00,Weather View 32 v70,2013-11-09 08:20:00,
2013-11-08 23:25:00,32.0,-58.3,30.35,SW,225,0.0,0.0,1,0.00,,,0.00,Weather View 32 v70,2013-11-09 08:25:00,
2013-11-08 23:30:00,32.0,-58.3,30.35,SW,225,0.0,0.0,1,0.00,,,0.00,Weather View 32 v70,2013-11-09 08:30:00,
2013-11-08 23:35:00,32.0,-58.3,30.35,SW,225,0.0,0.0,1,0.00,,,0.00,Weather View 32 v70,2013-11-09 08:35:00,
2013-11-08 23:45:00,32.0,-58.3,30.36,SW,225,0.0,0.0,1,0.00,,,0.00,Weather View 32 v70,2013-11-09 08:45:00,
2013-11-08 23:50:00,32.0,-58.3,30.36,SW,225,0.0,0.0,1,0.00,,,0.00,Weather View 32 v70,2013-11-09 08:50:00,
2013-11-08 23:55:00,32.0,-58.3,30.36,SW,225,0.0,0.0,1,0.00,,,0.00,Weather View 32 v70,2013-11-09 08:55:00,